Terminal Aerodrome Forecast
Issued by NWS

Home | Current Version | Previous Version | Text Only | Print | Product List | Glossary On
Versions: 1 2 3 4 5 6 7 8 9 10 11 12 13 14 15 16
000
FTUS41 KGYX 210520
TAFLEB
TAF
KLEB 210520Z 2106/2206 VRB03KT P6SM BKN060
     FM211400 33009G16KT P6SM BKN060
     FM212300 33003KT P6SM SKC=

USA.gov is the U.S. government's official web portal to all federal, state and local government web resources and services.